Six Lakes, MI (48886)

11:49 AM EST on February 22, 2017 (GMT -0500)
Home Twp SE | | Change Station
Active Advisory: Marine Fog Advisory

Elev 967 ft 43.39 °N, 84.99 °W | Updated 22 seconds ago

Fog
Fog
53.8 °F
Feels Like 53.8 °F
N
3.0
Wind Variable Wind from SSW

Today
High -- | Low -- °F
--% Chance of Precip.
Yesterday
High -- | Low -- °F
Precip. -- in
Pressure 29.79 in
Visibility 1.0 miles
Clouds Overcast 300 ft
Dew Point 53 °F
Humidity 98%
Rainfall 0.00 in
Snow Depth Not available.
7:27 AM 6:20 PM
Waning Crescent, 16% visible
METAR KAMN 221632Z AUTO 21008KT 1SM BR OVC003 11/11 A2979 RMK AO2 T01110107
Pressure 29.79 in
Visibility 1.0 miles
Clouds Overcast 300 ft
Dew Point 53 °F
Humidity 98%
Rainfall 0.00 in
Snow Depth Not available.
7:27 AM 6:20 PM
Waning Crescent, 16% visible
METAR KAMN 221632Z AUTO 21008KT 1SM BR OVC003 11/11 A2979 RMK AO2 T01110107

Get Your Daily Forecast Email!

Thanks for signing up!

Be on the lookout for a verification email in your inbox.

You'll start receiving the daily forecast at 8 AM.

×

10-Day Weather Forecast

Almanac

Astronomy

Feb. 22, 2017 Rise Set
Actual Time
Civil Twilight
Nautical Twilight
Astronomical Twilight
Moon
Length of Visible Light
Length of Day
Tomorrow will be .
, % of the Moon is Illuminated

Today's Extremes

State Highs State Lows

Community

WunderPhotos

Upload Photos

1,962,540 photos uploaded!

WunderBlog® & News

Nearby

Air Quality

  Air Quality AQ Index Pollutant
Not available.

Snow Depth

Station Depth Elevation

Earthquake Activity

City Distance Mag. Time & Date
Minimum magnitude displayed is 2.5.

Coastal Water Temperatures

Place Temperature

Stations

Nearby Weather Stations

Station Location Temp. Windchill Dew Point Humidity Wind Precip. Elev Updated Type
                   

Watches & Warnings

Marine Fog Advisory
Issued: 11:31 AM EST Feb. 22, 2017 – National Weather Service

... Dense fog advisory remains in effect until 1 PM EST this
afternoon...

* visibility... widespread dense fog with visibilities at or below
a quarter mile will prevail into the early afternoon.


Precautionary/preparedness actions...

* inexperienced mariners... especially those operating smaller
vessels... should avoid navigating in these conditions.